Tiempo atmosférico en la estación meteorológica de Tinajo, Las Palmas (275 m.)



Fecha
DESCASC
Temp. máxima en grados centígrados (hora)
DESCASC
Temp. mínima en grados centígrados (hora)
DESCASC
Temp. media en grados centígrados
DESCASC
Racha de viento máxima en m/sg (hora)
DESCASC
Velocidad máxima media en intervalos de 10 minutos(hora)
DESCASC
Precipitaciones diarias en mm
DESCASC
Precipitaciones de 00:00 a 06:00 en mm
DESCASC
Precipitaciones de 06:00 a 12:00 en mm
DESCASC
Precipitaciones de 12:00 a 18:00 en mm
DESCASC
Precipitaciones de 18:00 a 24:00 en mm
DESCASC
20-10-2019 22.1 (15:30) 18.2 (23:00) 20.2 13.61 (11:30) 9.72 (13:10) 0 0 0 0 0
19-10-2019 22.5 (15:40) 18.1 (05:50) 20.3 9.72 (03:50) 6.39 (12:20) 0 0 0 0 0
18-10-2019 22 (13:20) 17.7 (05:10) 19.9 12.5 (13:50) 8.33 (14:00) 0 0 0 0 0
17-10-2019 22.3 (13:50) 16.8 (00:00) 19.5 10.83 (12:40) 6.39 (13:30) 0 0 0 0 0
16-10-2019 22.2 (12:10) 17.7 (00:00) 20 10.28 (11:20) 6.39 (12:20) 0 0 0 0 0
15-10-2019 22.4 (14:10) 17.5 (00:00) 19.9 11.67 (01:50) 7.22 (17:40) 0 0 0 0 0
14-10-2019 22.7 (15:20) 16.2 (00:00) 19.5 11.39 (22:50) 6.94 (14:20) 0 0 0 0 0
13-10-2019 23.5 (15:20) 14.7 (00:00) 19.1 8.61 (15:40) 5 (17:40) 0 0 0 0 0
12-10-2019 23.4 (13:50) 16.4 (00:00) 19.9 8.33 (16:40) 4.72 (16:10) 0 0 0 0 0
11-10-2019 23.7 (14:10) 17.3 (00:00) 20.5 6.67 (16:10) 4.17 (16:10) 0 0 0 0 0
10-10-2019 23.2 (15:30) 18.9 (00:00) 21.1 7.78 (05:50) 5 (12:00) 0 0 0 0 0
09-10-2019 23.1 (13:50) 18.9 (00:00) 21 10.83 (16:00) 7.5 (11:40) 0 0 0 0 0
08-10-2019 23.3 (14:30) 18.8 (00:00) 21 10.28 (23:50) 6.67 (14:00) 0 0 0 0 0
07-10-2019 23.3 (15:20) 19 (00:00) 21.1 11.39 (00:50) 6.39 (02:00) 0 0 0 0 0
06-10-2019 22.3 (12:50) 19.1 (00:00) 20.7 15.56 (00:10) 8.89 (00:40) 0 0 0 0 0
05-10-2019 23.3 (13:00) 19.8 (00:00) 21.5 18.89 (11:00) 11.11 (12:40) 0 0 0 0 0
04-10-2019 23.6 (15:10) 19.3 (00:00) 21.4 17.78 (08:20) 10.83 (08:20) 0 0 0 0 0
03-10-2019 23.3 (13:00) 19.8 (00:00) 21.5 17.22 (16:40) 10.56 (15:30) 0 0 0 0 0
02-10-2019 26.9 (14:30) 19.1 (00:00) 23 13.61 (23:00) 8.89 (23:59) 0 0 0 0 0
01-10-2019 25.8 (16:10) 18.8 (00:00) 22.3 10.28 (13:00) 6.11 (10:50) 0 0 0 0 0
30-09-2019 26.3 (15:00) 19.8 (00:00) 23 8.89 (18:50) 6.39 (18:30) 0 0 0 0 0
29-09-2019 24.4 (13:40) 19.1 (00:00) 21.8 10.83 (16:00) 6.39 (10:00) 0 0 0 0 0
28-09-2019 23.9 (15:40) 18.8 (00:00) 21.3 12.22 (15:00) 6.39 (16:10) 0 0 0 0 0
27-09-2019 23.6 (15:10) 19.5 (00:00) 21.6 11.67 (12:20) 6.94 (16:10) 0 0 0 0 0
26-09-2019 23.5 (14:20) 19.8 (00:00) 21.6 12.22 (08:00) 7.5 (00:10) 0 0 0 0 0
25-09-2019 23.8 (14:20) 19.1 (00:00) 21.4 14.72 (12:50) 8.89 (12:20) 0 0 0 0 0
24-09-2019 23.1 (14:00) 19 (00:00) 21.1 13.61 (12:00) 8.89 (15:30) 0 0 0 0 0
23-09-2019 23.6 (13:50) 19 (00:00) 21.3 13.33 (14:30) 9.17 (14:40) 0 0 0 0 0
22-09-2019 24.9 (16:10) 19.9 (00:00) 22.4 11.67 (19:10) 6.67 (19:40) 0 0 0 0 0

Gráficas

Temp. máximas Temp. mínimas Temp. medias Precipitaciones Rachas de viento máximas Velocidades máximas media en intervalos de 10 minutos

Datos horarios

Fecha y hora oficial Temperatura (ºC) Velocidad del viento (km/h) Dirección del viento Racha (km/h) Dirección de racha Precipitación (mm) Presión (hPa) Tendencia (hPa) Humedad (%)
2019-10-21 23:00:00 18 23 Norte 39 Norte 0 -- -- 64
2019-10-21 22:00:00 18.2 26 Norte 43 Norte 0 -- -- 64
2019-10-21 21:00:00 18.3 22 Norte 36 Norte 0 -- -- 63
2019-10-21 20:00:00 18.3 19 Norte 33 Nordeste 0 -- -- 57
2019-10-21 19:00:00 18.8 24 Norte 40 Norte 0 -- -- 58
2019-10-21 18:00:00 19.7 27 Norte 41 Norte 0 -- -- 54
2019-10-21 17:00:00 20.2 31 Norte 44 Norte 0 -- -- 50
2019-10-21 16:00:00 20.6 28 Norte 43 Nordeste 0 -- -- 58
2019-10-21 15:00:00 20.7 24 Norte 41 Nordeste 0 -- -- 54
2019-10-21 14:00:00 20.4 29 Norte 45 Norte 0 -- -- 54
2019-10-21 13:00:00 19.3 26 Norte 48 Norte -- -- -- 59
2019-10-21 12:00:00 19.4 24 Nordeste 45 Nordeste 0 -- -- 69
2019-10-21 11:00:00 18.8 23 Nordeste 42 Nordeste 0 -- -- 67
2019-10-21 10:00:00 18.3 22 Norte 37 Norte 0 -- -- 68
2019-10-21 09:00:00 18.2 17 Nordeste 37 Norte 0 -- -- 70
2019-10-21 08:00:00 17.6 18 Nordeste 41 Nordeste 0 -- -- 69
2019-10-21 07:00:00 17.6 21 Nordeste 42 Nordeste 0 -- -- 70
2019-10-21 06:00:00 17.3 18 Nordeste 33 Norte 0 -- -- 72
2019-10-21 05:00:00 17.5 19 Nordeste 36 Norte 0 -- -- 70
2019-10-21 04:00:00 17.6 20 Nordeste 39 Nordeste 0 -- -- 70
2019-10-21 03:00:00 18 25 Nordeste 44 Nordeste 0 -- -- 68
2019-10-21 02:00:00 18.1 21 Nordeste 38 Nordeste 0 -- -- 74
2019-10-21 01:00:00 18 21 Nordeste 34 Nordeste 0 -- -- 69
2019-10-21 00:00:00 18.4 21 Nordeste 36 Nordeste 0 -- -- 69
2019-10-20 23:00:00 18.2 18 Nordeste 33 Nordeste 0 -- -- 71
2019-10-20 22:00:00 18.6 25 Nordeste 42 Nordeste 0 -- -- 72
2019-10-20 21:00:00 18.9 27 Nordeste 42 Norte 0 -- -- 77
2019-10-20 20:00:00 19.1 27 Nordeste 40 Nordeste 0 -- -- 76
2019-10-20 19:00:00 19.6 27 Norte 46 Este 0 -- -- 74
2019-10-20 18:00:00 20.6 26 Nordeste 43 Nordeste 0 -- -- 69
2019-10-20 17:00:00 21.4 28 Norte 47 Nordeste 0 -- -- 66
2019-10-20 16:00:00 21.7 27 Nordeste 40 Nordeste 0 -- -- 66
2019-10-20 15:00:00 21 26 Nordeste 42 Norte 0 -- -- 69
2019-10-20 14:00:00 20.7 26 Nordeste 47 Nordeste 0 -- -- 73
2019-10-20 13:00:00 20.7 34 Nordeste 46 Nordeste 0 -- -- 77
2019-10-20 12:00:00 19.8 31 Nordeste 49 Nordeste 0 -- -- 86
2019-10-20 11:00:00 18.8 28 Nordeste 45 Nordeste 0 -- -- 94
2019-10-20 10:00:00 20.2 21 Norte 32 Norte 0 -- -- 88
2019-10-20 09:00:00 19.7 14 Nordeste 25 Nordeste 0 -- -- 88
2019-10-20 08:00:00 19.2 14 Norte 26 Norte 0 -- -- 91
2019-10-20 07:00:00 19.2 12 Norte 23 Norte 0 -- -- 92
2019-10-20 06:00:00 19.3 15 Norte 25 Norte 0 -- -- 91
2019-10-20 05:00:00 19.6 16 Norte 28 Norte 0 -- -- 90
2019-10-20 04:00:00 19.7 15 Norte 23 Norte 0 -- -- 92
2019-10-20 03:00:00 19.8 12 Norte 22 Noroeste 0 -- -- 91
2019-10-20 02:00:00 19.8 14 Norte 23 Norte 0 -- -- 90
2019-10-20 01:00:00 19.7 14 Noroeste 24 Norte 0 -- -- 90
2019-10-20 00:00:00 19.7 16 Norte 27 Norte 0 -- -- 89
2019-10-19 23:00:00 19.8 18 Norte 26 Norte 0 -- -- 90
2019-10-19 22:00:00 19.8 15 Norte 25 Norte 0 -- -- 89
2019-10-19 21:00:00 19.8 15 Norte 26 Norte 0 -- -- 88
2019-10-19 20:00:00 19.9 13 Norte 27 Norte 0 -- -- 86
2019-10-19 19:00:00 20.3 18 Norte 27 Norte 0 -- -- 84
2019-10-19 18:00:00 20.9 18 Norte 30 Norte 0 -- -- 79
2019-10-19 17:00:00 21.9 20 Norte 31 Nordeste 0 -- -- 72
2019-10-19 16:00:00 22.2 20 Norte 30 Norte 0 -- -- 69
2019-10-19 15:00:00 22 19 Norte 33 Norte 0 -- -- 72
2019-10-19 14:00:00 22.3 19 Norte 31 Norte 0 -- -- 70
2019-10-19 13:00:00 21.9 20 Norte 32 Norte 0 -- -- 73
2019-10-19 12:00:00 21.6 21 Norte 34 Norte 0 -- -- 71
2019-10-19 11:00:00 20.6 21 Norte 33 Norte 0 -- -- 77
2019-10-19 10:00:00 20.3 21 Norte 30 Nordeste 0 -- -- 77
2019-10-19 09:00:00 -- -- -- -- -- -- -- -- --
2019-10-19 08:00:00 18.7 14 Nordeste 31 Nordeste 0 -- -- 87
2019-10-19 07:00:00 18.6 20 Nordeste 33 Nordeste 0 -- -- 85
2019-10-19 06:00:00 18.5 12 Nordeste 27 Norte 0 -- -- 90
2019-10-19 05:00:00 18.3 12 Norte 29 Nordeste 0 -- -- 89
2019-10-19 04:00:00 18.7 18 Nordeste 35 Nordeste 0 -- -- 88
2019-10-19 03:00:00 18.7 17 Nordeste 28 Norte 0 -- -- 88
2019-10-19 02:00:00 18.9 15 Norte 28 Nordeste 0 -- -- 86
2019-10-19 01:00:00 19 18 Nordeste 29 Nordeste 0 -- -- 87
2019-10-19 00:00:00 18.8 15 Norte 32 Norte 0 -- -- 87
2019-10-18 23:00:00 19.1 21 Norte 37 Norte 0 -- -- 85
2019-10-18 22:00:00 19.1 22 Norte 34 Norte 0 -- -- 85
2019-10-18 21:00:00 19.3 22 Norte 38 Norte 0 -- -- 85
2019-10-18 20:00:00 19.6 24 Norte 36 Norte 0 -- -- 82
2019-10-18 19:00:00 20.1 26 Norte 38 Norte 0 -- -- 80
2019-10-18 18:00:00 20.6 23 Norte 42 Norte 0 -- -- 76
2019-10-18 17:00:00 20.7 27 Nordeste 40 Nordeste 0 -- -- 74
2019-10-18 16:00:00 21.5 22 Norte 41 Norte 0 -- -- 71
2019-10-18 15:00:00 21.7 23 Norte 43 Norte 0 -- -- 68
2019-10-18 14:00:00 21.6 30 Norte 45 Nordeste 0 -- -- 66
2019-10-18 13:00:00 21.8 24 Norte 43 Nordeste 0 -- -- 67
2019-10-18 12:00:00 21.4 26 Norte 36 Nordeste 0 -- -- 67
2019-10-18 11:00:00 20.6 22 Nordeste 41 Norte 0 -- -- 74
2019-10-18 10:00:00 20.2 22 Nordeste 34 Norte 0 -- -- 73
2019-10-18 09:00:00 18.5 14 Norte 34 Nordeste 0 -- -- 83
2019-10-18 08:00:00 18.2 15 Nordeste 26 Norte 0 -- -- 86
2019-10-18 07:00:00 18.3 16 Norte 23 Norte 0 -- -- 82
2019-10-18 06:00:00 17.9 12 Norte 21 Norte 0 -- -- 82
2019-10-18 05:00:00 17.8 9 Norte 19 Norte 0 -- -- 84
2019-10-18 04:00:00 18 13 Norte 19 Norte 0 -- -- 84
2019-10-18 03:00:00 18.1 10 Norte 22 Nordeste 0 -- -- 84
2019-10-18 02:00:00 18.5 13 Nordeste 21 Nordeste 0 -- -- 84
2019-10-18 01:00:00 18.4 13 Nordeste 26 Nordeste 0 -- -- 83
2019-10-18 00:00:00 18.6 14 Nordeste 22 Nordeste 0 -- -- 83
2019-10-17 23:00:00 18.6 11 Norte 21 Nordeste 0 -- -- 82
2019-10-17 22:00:00 19 10 Norte 22 Norte 0 -- -- 82
2019-10-17 21:00:00 19.3 15 Norte 23 Norte 0 -- -- 80
2019-10-17 20:00:00 19.5 15 Norte 22 Norte 0 -- -- 79
2019-10-17 19:00:00 19.8 14 Norte 26 Norte 0 -- -- 76
2019-10-17 18:00:00 20.6 17 Norte 32 Norte 0 -- -- 69
2019-10-17 17:00:00 21.3 19 Norte 34 Norte 0 -- -- 64
2019-10-17 16:00:00 21.7 18 Norte 35 Norte 0 -- -- 65
2019-10-17 15:00:00 21.7 18 Norte 36 Norte 0 -- -- 64
2019-10-17 14:00:00 21.8 21 Norte 38 Nordeste 0 -- -- 60
2019-10-17 13:00:00 21.7 22 Norte 39 Norte 0 -- -- 62
2019-10-17 12:00:00 21.6 22 Nordeste 37 Nordeste 0 -- -- 56
2019-10-17 11:00:00 20.7 20 Nordeste 34 Nordeste 0 -- -- 58
2019-10-17 10:00:00 19.7 20 Norte 27 Norte 0 -- -- 59
2019-10-17 09:00:00 18.1 10 Norte 29 Norte 0 -- -- 75
2019-10-17 08:00:00 18.1 15 Nordeste 24 Nordeste 0 -- -- 83
2019-10-17 07:00:00 17 4 Norte 20 Nordeste 0 -- -- 83
2019-10-17 06:00:00 17.7 10 Nordeste 22 Nordeste 0 -- -- 81
2019-10-17 05:00:00 17.6 13 Nordeste 21 Nordeste 0 -- -- 82
2019-10-17 04:00:00 17.8 13 Nordeste 24 Nordeste 0 -- -- 83
2019-10-17 03:00:00 18.1 13 Nordeste 29 Nordeste 0 -- -- 83
2019-10-17 02:00:00 18.3 15 Nordeste 23 Nordeste 0 -- -- 84
2019-10-17 01:00:00 17.2 9 Nordeste 11 Nordeste 0 -- -- 86
2019-10-17 00:00:00 17.7 9 Nordeste 14 Nordeste 0 -- -- 84
2019-10-16 23:00:00 18.1 8 Nordeste 13 Nordeste 0 -- -- 82
2019-10-16 22:00:00 18.9 7 Nordeste 11 Nordeste 0 -- -- 80
2019-10-16 21:00:00 18.8 9 Nordeste 17 Nordeste 0 -- -- 80
2019-10-16 20:00:00 19.2 12 Nordeste 21 Nordeste 0 -- -- 80
2019-10-16 19:00:00 19.7 13 Norte 22 Norte 0 -- -- 78
2019-10-16 18:00:00 20.2 14 Norte 23 Norte 0 -- -- 75
2019-10-16 17:00:00 20.7 13 Norte 26 Norte 0 -- -- 73
2019-10-16 16:00:00 21.6 15 Norte 27 Norte 0 -- -- 65
2019-10-16 15:00:00 21.6 14 Nordeste 28 Norte 0 -- -- 67
2019-10-16 14:00:00 21.4 18 Norte 32 Nordeste 0 -- -- 69
2019-10-16 13:00:00 21.6 22 Norte 33 Nordeste 0 -- -- 67
2019-10-16 12:00:00 21.6 20 Nordeste 37 Nordeste 0 -- -- 62
2019-10-16 11:00:00 20.7 21 Nordeste 35 Nordeste 0 -- -- 68
2019-10-16 10:00:00 19.1 18 Nordeste 30 Nordeste 0 -- -- 79
2019-10-16 09:00:00 18.7 16 Nordeste 28 Nordeste 0 -- -- 83
2019-10-16 08:00:00 18.2 18 Nordeste 33 Nordeste 0 -- -- 83
2019-10-16 07:00:00 18.1 15 Nordeste 22 Nordeste 0 -- -- 85
2019-10-16 06:00:00 18.1 13 Nordeste 22 Norte 0 -- -- 85
2019-10-16 05:00:00 18.2 14 Nordeste 30 Nordeste 0 -- -- 85
2019-10-16 04:00:00 18.2 17 Nordeste 32 Nordeste 0 -- -- 85
2019-10-16 03:00:00 18.3 17 Nordeste 29 Nordeste 0 -- -- 84
2019-10-16 02:00:00 18.6 17 Nordeste 29 Nordeste 0 -- -- 83
2019-10-16 01:00:00 -- -- -- -- -- -- -- -- --
2019-10-16 00:00:00 -- -- -- -- -- -- -- -- --
2019-10-15 23:00:00 -- -- -- -- -- -- -- -- --
2019-10-15 22:00:00 -- -- -- -- -- -- -- -- --
2019-10-15 21:00:00 -- -- -- -- -- -- -- -- --
2019-10-15 20:00:00 -- -- -- -- -- -- -- -- --
2019-10-15 19:00:00 -- -- -- -- -- -- -- -- --
2019-10-15 18:00:00 -- -- -- -- -- -- -- -- --
2019-10-15 17:00:00 -- -- -- -- -- -- -- -- --
2019-10-15 16:00:00 -- -- -- -- -- -- -- -- --
2019-10-15 15:00:00 -- -- -- -- -- -- -- -- --
2019-10-15 14:00:00 -- -- -- -- -- -- -- -- --
2019-10-15 13:00:00 -- -- -- -- -- -- -- -- --
2019-10-15 12:00:00 21.3 15 Nordeste 31 Nordeste 0 -- -- 55
2019-10-15 11:00:00 20.6 19 Nordeste 36 Nordeste 0 -- -- 59
2019-10-15 10:00:00 19.1 19 Nordeste 33 Nordeste 0 -- -- 68
2019-10-15 09:00:00 17.8 11 Nordeste 26 Nordeste 0 -- -- 75
2019-10-15 08:00:00 17.8 20 Nordeste 34 Nordeste 0 -- -- 73
2019-10-15 07:00:00 18 20 Nordeste 35 Nordeste 0 -- -- 76
2019-10-15 06:00:00 18 24 Nordeste 32 Nordeste 0 -- -- 78
2019-10-15 05:00:00 17.7 16 Nordeste 29 Nordeste 0 -- -- 80
2019-10-15 04:00:00 18.1 21 Nordeste 30 Nordeste 0 -- -- 79
2019-10-15 03:00:00 18.2 19 Nordeste 41 Nordeste 0 -- -- 81
2019-10-15 02:00:00 18.4 21 Nordeste 42 Nordeste 0 -- -- 78
2019-10-15 01:00:00 18.7 23 Nordeste 33 Nordeste 0 -- -- 79
2019-10-15 00:00:00 18.4 21 Nordeste 32 Nordeste 0 -- -- 82
2019-10-14 23:00:00 18.7 22 Nordeste 41 Nordeste 0 -- -- 82
2019-10-14 22:00:00 18.8 22 Nordeste 34 Nordeste 0 -- -- 82
2019-10-14 21:00:00 18.9 19 Nordeste 30 Nordeste 0 -- -- 81
2019-10-14 20:00:00 19.2 19 Nordeste 31 Nordeste 0 -- -- 81
2019-10-14 19:00:00 19.8 21 Nordeste 37 Norte 0 -- -- 78
2019-10-14 18:00:00 21.2 19 Nordeste 33 Nordeste 0 -- -- 74
2019-10-14 17:00:00 21.4 22 Norte 36 Norte 0 -- -- 72
2019-10-14 16:00:00 22.5 22 Norte 35 Nordeste 0 -- -- 68
2019-10-14 15:00:00 22.5 23 Norte 36 Norte 0 -- -- 69
2019-10-14 14:00:00 22 22 Nordeste 36 Norte 0 -- -- 72
2019-10-14 13:00:00 21.4 21 Nordeste 31 Norte 0 -- -- 77
2019-10-14 12:00:00 21.4 19 Nordeste 32 Nordeste 0 -- -- 78
2019-10-14 11:00:00 19.7 18 Nordeste 32 Nordeste 0 -- -- 85
2019-10-14 10:00:00 19.2 21 Nordeste 32 Nordeste 0 -- -- 91
2019-10-14 09:00:00 19.3 10 Nordeste 18 Nordeste 0 -- -- 91
2019-10-14 08:00:00 18.6 4 Norte 10 Norte 0 -- -- 91
2019-10-14 07:00:00 18.7 8 Noroeste 14 Noroeste 0 -- -- 90
2019-10-14 06:00:00 18.5 6 Noroeste 9 Noroeste 0 -- -- 90
2019-10-14 05:00:00 17.2 3 Sudoeste 7 Noroeste 0 -- -- 87
2019-10-14 04:00:00 16.5 0 Calma 7 Oeste 0 -- -- 84
2019-10-14 03:00:00 17.5 4 Oeste 7 Oeste 0 -- -- 87
2019-10-14 02:00:00 17.3 3 Oeste 10 Oeste 0 -- -- 83
2019-10-14 01:00:00 17.9 8 Noroeste 12 Noroeste 0 -- -- 82
2019-10-14 00:00:00 18.2 4 Oeste 9 Oeste 0 -- -- 79
2019-10-13 23:00:00 18 4 Sudoeste 8 Noroeste 0 -- -- 78
2019-10-13 22:00:00 19.3 8 Noroeste 12 Oeste 0 -- -- 75
2019-10-13 21:00:00 19.7 8 Noroeste 13 Noroeste 0 -- -- 72
2019-10-13 20:00:00 20.2 6 Noroeste 15 Noroeste 0 -- -- 67
2019-10-13 19:00:00 21.3 13 Noroeste 27 Noroeste 0 -- -- 61
2019-10-13 18:00:00 22.4 17 Noroeste 28 Noroeste 0 -- -- 56
2019-10-13 17:00:00 23 14 Noroeste 29 Oeste 0 -- -- 54
2019-10-13 16:00:00 23.3 14 Oeste 31 Oeste 0 -- -- 57
2019-10-13 15:00:00 23.2 11 Noroeste 24 Noroeste 0 -- -- 55
2019-10-13 14:00:00 23 12 Oeste 23 Oeste 0 -- -- 55
2019-10-13 13:00:00 22.6 9 Noroeste 21 Noroeste 0 -- -- 56
2019-10-13 12:00:00 21.6 14 Noroeste 27 Noroeste 0 -- -- 61
2019-10-13 11:00:00 21.3 15 Oeste 24 Oeste 0 -- -- 61
2019-10-13 10:00:00 20 9 Noroeste 13 Noroeste 0 -- -- 68
2019-10-13 09:00:00 17.9 6 Sudoeste 8 Sur 0 -- -- 89
2019-10-13 08:00:00 15 4 Sur 6 Sudoeste 0 -- -- 92
2019-10-13 07:00:00 15.3 3 Sur 5 Sudeste 0 -- -- 92
2019-10-13 06:00:00 15.7 5 Sur 6 Sur 0 -- -- 90
2019-10-13 05:00:00 15.3 5 Sudeste 6 Sudeste 0 -- -- 89
2019-10-13 04:00:00 16.2 0 Calma 4 Sudeste 0 -- -- 90
2019-10-13 03:00:00 15.8 3 Sudeste 6 Este 0 -- -- 87
2019-10-13 02:00:00 17.4 3 Este 8 Nordeste 0 -- -- 87
2019-10-13 01:00:00 17.6 8 Nordeste 14 Nordeste -- -- -- 82
2019-10-13 00:00:00 18.4 6 Nordeste 14 Nordeste 0 -- -- 83
2019-10-12 23:00:00 18.7 8 Norte 19 Norte 0 -- -- 83
2019-10-12 22:00:00 19.2 13 Nordeste 22 Nordeste 0 -- -- 82
2019-10-12 21:00:00 19.5 14 Norte 27 Norte 0 -- -- 83
2019-10-12 20:00:00 19.9 15 Norte 26 Norte 0 -- -- 82
2019-10-12 19:00:00 20.6 15 Norte 24 Norte 0 -- -- 80
2019-10-12 18:00:00 21.2 16 Norte 26 Norte 0 -- -- 76
2019-10-12 17:00:00 22 16 Norte 30 Norte 0 -- -- 71
2019-10-12 16:00:00 22.3 14 Norte 26 Norte 0 -- -- 70
2019-10-12 15:00:00 23.2 15 Norte 26 Norte 0 -- -- 63
2019-10-12 14:00:00 23.4 15 Norte 27 Nordeste 0 -- -- 63
2019-10-12 13:00:00 21.8 14 Norte 26 Norte 0 -- -- 71
2019-10-12 12:00:00 22.1 11 Norte 18 Nordeste 0 -- -- 66
2019-10-12 11:00:00 21.2 9 Nordeste 16 Nordeste 0 -- -- 73
2019-10-12 10:00:00 20.2 9 Nordeste 16 Este 0 -- -- 78
2019-10-12 09:00:00 18.1 5 Este 12 Nordeste 0 -- -- 90
2019-10-12 08:00:00 17 6 Nordeste 10 Nordeste 0 -- -- 91
2019-10-12 07:00:00 17.2 0 Calma 12 Nordeste 0 -- -- 89
2019-10-12 06:00:00 18.4 7 Nordeste 13 Norte 0 -- -- 88
2019-10-12 05:00:00 18.2 4 Norte 16 Norte 0 -- -- 87
2019-10-12 04:00:00 18.9 9 Norte 18 Norte 0 -- -- 86
2019-10-12 03:00:00 19 10 Norte 18 Norte 0 -- -- 87
2019-10-12 02:00:00 19.3 9 Norte 18 Norte 0 -- -- 88
2019-10-12 01:00:00 19.4 11 Norte 19 Noroeste 0 -- -- 86
2019-10-12 00:00:00 19.5 10 Noroeste 20 Noroeste 0 -- -- 85
2019-10-11 23:00:00 19.4 9 Norte 23 Noroeste 0 -- -- 84
2019-10-11 22:00:00 19.6 13 Noroeste 20 Noroeste 0 -- -- 82
2019-10-11 21:00:00 19.8 8 Noroeste 17 Noroeste 0 -- -- 82
2019-10-11 20:00:00 20.2 8 Noroeste 17 Noroeste 0 -- -- 79
2019-10-11 19:00:00 21.2 12 Noroeste 22 Noroeste 0 -- -- 74
2019-10-11 18:00:00 22.1 12 Noroeste 22 Noroeste 0 -- -- 64
2019-10-11 17:00:00 22.8 13 Norte 24 Noroeste 0 -- -- 61
2019-10-11 16:00:00 23.6 13 Noroeste 23 Norte 0 -- -- 54
2019-10-11 15:00:00 23.4 12 Norte 24 Noroeste 0 -- -- 58
2019-10-11 14:00:00 23.6 11 Norte 23 Noroeste 0 -- -- 58
2019-10-11 13:00:00 23.2 12 Noroeste 21 Norte 0 -- -- 55
2019-10-11 12:00:00 22.3 11 Norte 21 Nordeste 0 -- -- 60
2019-10-11 11:00:00 21.2 10 Norte 17 Norte 0 -- -- 65
2019-10-11 10:00:00 20 6 Norte 9 Norte 0 -- -- 80
2019-10-11 09:00:00 18.1 0 Calma 8 Noroeste 0 -- -- 92
2019-10-11 08:00:00 17.3 2 Norte 9 Noroeste 0 -- -- 91
2019-10-11 07:00:00 18.2 6 Noroeste 14 Norte 0 -- -- 92
2019-10-11 06:00:00 18.3 8 Noroeste 13 Noroeste 0 -- -- 92
2019-10-11 05:00:00 18.3 5 Noroeste 16 Noroeste 0 -- -- 90
2019-10-11 04:00:00 18.3 9 Noroeste 14 Noroeste 0 -- -- 92
2019-10-11 03:00:00 17.9 4 Oeste 8 Noroeste 0 -- -- 91
2019-10-11 02:00:00 17.8 3 Noroeste 5 Noroeste 0 -- -- 91
2019-10-11 01:00:00 18.6 0 Calma 5 Noroeste 0 -- -- 88
2019-10-11 00:00:00 19.3 2 Norte 9 Norte 0 -- -- 88
2019-10-10 23:00:00 19.6 5 Norte 13 Norte 0 -- -- 87
2019-10-10 22:00:00 20.1 8 Norte 13 Norte 0 -- -- 86
2019-10-10 21:00:00 20.1 7 Norte 15 Nordeste 0 -- -- 84
2019-10-10 20:00:00 20.3 11 Norte 19 Norte 0 -- -- 82
2019-10-10 19:00:00 20.9 14 Norte 24 Norte 0 -- -- 79
2019-10-10 18:00:00 21.8 13 Norte 22 Norte 0 -- -- 71
2019-10-10 17:00:00 22.2 14 Norte 21 Norte 0 -- -- 68
2019-10-10 16:00:00 23.1 11 Norte 23 Norte 0 -- -- 62
2019-10-10 15:00:00 23.1 11 Norte 26 Norte 0 -- -- 62
2019-10-10 14:00:00 22.7 15 Norte 27 Nordeste 0 -- -- 68
2019-10-10 13:00:00 22.1 15 Norte 26 Norte 0 -- -- 72
2019-10-10 12:00:00 21.7 18 Norte 27 Norte 0 -- -- 74
2019-10-10 11:00:00 21.6 10 Norte 22 Nordeste 0 -- -- 70
2019-10-10 10:00:00 20.7 12 Nordeste 22 Nordeste 0 -- -- 74
2019-10-10 09:00:00 19.6 13 Nordeste 21 Nordeste 0 -- -- 85
2019-10-10 08:00:00 19.1 7 Norte 17 Norte 0 -- -- 88
2019-10-10 07:00:00 19 13 Norte 26 Norte 0 -- -- 85
2019-10-10 06:00:00 19.5 14 Nordeste 28 Norte 0 -- -- 90
2019-10-10 05:00:00 19.7 12 Nordeste 24 Nordeste 0 -- -- 84
2019-10-10 04:00:00 20.3 9 Norte 17 Norte 0 -- -- 79
2019-10-10 03:00:00 20.2 12 Nordeste 22 Norte 0 -- -- 72
2019-10-10 02:00:00 20.2 12 Nordeste 21 Norte 0 -- -- 79
2019-10-10 01:00:00 20.1 10 Norte 23 Nordeste 0 -- -- 86
2019-10-10 00:00:00 20.1 18 Nordeste 32 Nordeste 0 -- -- 90
2019-10-09 23:00:00 19.7 10 Norte 27 Nordeste 0 -- -- 89
2019-10-09 22:00:00 20 18 Nordeste 31 Nordeste 0 -- -- 82
2019-10-09 21:00:00 20.3 18 Norte 32 Norte 0 -- -- 78
2019-10-09 20:00:00 20.3 20 Norte 29 Norte 0 -- -- 81
2019-10-09 19:00:00 20.9 19 Nordeste 32 Norte 0 -- -- 75
2019-10-09 18:00:00 21.5 15 Nordeste 34 Este 0 -- -- 70
2019-10-09 17:00:00 22.3 20 Norte 33 Norte 0 -- -- 67
2019-10-09 16:00:00 22.3 23 Nordeste 39 Norte 0 -- -- 68
2019-10-09 15:00:00 22.7 21 Norte 35 Norte 0 -- -- 68
2019-10-09 14:00:00 23.1 19 Norte 33 Nordeste 0 -- -- 68
2019-10-09 13:00:00 22.1 19 Nordeste 35 Norte 0 -- -- 68
2019-10-09 12:00:00 21.9 22 Norte 38 Norte 0 -- -- 69
2019-10-09 11:00:00 21.3 26 Nordeste 37 Norte 0 -- -- 70
2019-10-09 10:00:00 20.3 20 Norte 33 Norte 0 -- -- 74
2019-10-09 09:00:00 19.4 15 Norte 31 Norte 0 -- -- 78
2019-10-09 08:00:00 19 17 Norte 25 Norte 0 -- -- 78
2019-10-09 07:00:00 19 14 Norte 23 Norte 0 -- -- 79
2019-10-09 06:00:00 19 12 Norte 27 Norte 0 -- -- 81
2019-10-09 05:00:00 19 14 Norte 29 Norte 0 -- -- 81
2019-10-09 04:00:00 19 17 Norte 35 Norte 0 -- -- 82
2019-10-09 03:00:00 19 20 Norte 31 Nordeste 0 -- -- 81
2019-10-09 02:00:00 19.2 18 Norte 26 Norte 0 -- -- 82
2019-10-09 01:00:00 19.2 15 Norte 29 Nordeste 0 -- -- 82
2019-10-09 00:00:00 19.4 17 Norte 37 Norte 0 -- -- 83
2019-10-08 23:00:00 19.5 17 Norte 29 Norte 0 -- -- 84
2019-10-08 22:00:00 19.4 20 Norte 27 Norte 0 -- -- 84
2019-10-08 21:00:00 19.6 15 Norte 27 Norte 0 -- -- 85
2019-10-08 20:00:00 19.7 14 Norte 26 Norte 0 -- -- 83
2019-10-08 19:00:00 20.4 18 Norte 27 Norte 0 -- -- 81
2019-10-08 18:00:00 21.5 17 Norte 33 Norte 0 -- -- 77
2019-10-08 17:00:00 22.2 21 Norte 32 Nordeste 0 -- -- 74
2019-10-08 16:00:00 23 22 Nordeste 32 Nordeste 0 -- -- 70
2019-10-08 15:00:00 23 20 Norte 34 Nordeste 0 -- -- 70
2019-10-08 14:00:00 23.1 24 Norte 35 Norte 0 -- -- 70
2019-10-08 13:00:00 22.8 22 Norte 35 Norte 0 -- -- 71
2019-10-08 12:00:00 22 23 Nordeste 32 Norte 0 -- -- 73
2019-10-08 11:00:00 21.3 16 Nordeste 30 Norte 0 -- -- 77
2019-10-08 10:00:00 20 18 Norte 31 Nordeste 0 -- -- 81
2019-10-08 09:00:00 19.3 14 Norte 25 Norte 0 -- -- 86
2019-10-08 08:00:00 18.9 10 Norte 28 Norte 0 -- -- 87
2019-10-08 07:00:00 18.9 12 Nordeste 26 Norte 0 -- -- 89
2019-10-08 06:00:00 18.9 15 Nordeste 29 Norte 0 -- -- 90
2019-10-08 05:00:00 18.8 11 Nordeste 25 Nordeste 0 -- -- 90
2019-10-08 04:00:00 18.8 12 Nordeste 23 Nordeste 0 -- -- 91
2019-10-08 03:00:00 18.9 13 Nordeste 26 Nordeste 0 -- -- 92
2019-10-08 02:00:00 19 10 Nordeste 26 Nordeste 0 -- -- 91
2019-10-08 01:00:00 19.2 13 Nordeste 28 Nordeste 0 -- -- 90
2019-10-08 00:00:00 19.4 12 Nordeste 29 Nordeste 0 -- -- 89
2019-10-07 23:00:00 19.6 19 Nordeste 31 Nordeste 0 -- -- 88
2019-10-07 22:00:00 19.8 18 Nordeste 33 Nordeste 0 -- -- 86
2019-10-07 21:00:00 20.1 19 Nordeste 33 Norte 0 -- -- 86
2019-10-07 20:00:00 20.3 17 Nordeste 31 Nordeste 0 -- -- 85
2019-10-07 19:00:00 20.8 18 Nordeste 33 Norte 0 -- -- 83
2019-10-07 18:00:00 21.7 21 Norte 31 Norte 0 -- -- 79
2019-10-07 17:00:00 22.4 19 Norte 30 Nordeste 0 -- -- 75
2019-10-07 16:00:00 22.7 22 Norte 34 Nordeste 0 -- -- 72
2019-10-07 15:00:00 23.2 19 Norte 30 Norte 0 -- -- 71
2019-10-07 14:00:00 22.9 18 Norte 29 Norte 0 -- -- 72
2019-10-07 13:00:00 22.8 14 Norte 29 Norte 0 -- -- 71
2019-10-07 12:00:00 22.1 17 Norte 28 Nordeste 0 -- -- 75
2019-10-07 11:00:00 21.2 20 Nordeste 35 Nordeste 0 -- -- 78
2019-10-07 10:00:00 20.1 21 Nordeste 33 Norte 0 -- -- 83
2019-10-07 09:00:00 19.5 20 Nordeste 30 Norte 0 -- -- 86
2019-10-07 08:00:00 19.1 16 Nordeste 31 Norte 0 -- -- 85
2019-10-07 07:00:00 19.1 18 Nordeste 36 Nordeste 0 -- -- 86
2019-10-07 06:00:00 19.3 20 Nordeste 32 Nordeste 0 -- -- 87
2019-10-07 05:00:00 19.2 17 Nordeste 33 Nordeste 0 -- -- 87
2019-10-07 04:00:00 19.1 21 Nordeste 35 Nordeste 0 -- -- 87
2019-10-07 03:00:00 19 18 Nordeste 34 Norte 0 -- -- 86
2019-10-07 02:00:00 19 23 Nordeste 35 Norte 0 -- -- 85
2019-10-07 01:00:00 19.2 20 Nordeste 41 Nordeste 0 -- -- 86
2019-10-07 00:00:00 19.3 19 Nordeste 37 Nordeste 0 -- -- 85
2019-10-06 23:00:00 19.5 20 Nordeste 43 Nordeste 0 -- -- 85
2019-10-06 22:00:00 19.7 21 Nordeste 39 Nordeste 0 -- -- 86
2019-10-06 21:00:00 19.7 18 Nordeste 36 Nordeste 0 -- -- 85
2019-10-06 20:00:00 19.8 23 Nordeste 40 Norte 0 -- -- 84
2019-10-06 19:00:00 20.2 23 Norte 42 Nordeste 0 -- -- 82
2019-10-06 18:00:00 20.7 26 Norte 42 Norte 0 -- -- 79
2019-10-06 17:00:00 21.1 27 Nordeste 46 Nordeste 0 -- -- 78
2019-10-06 16:00:00 21.6 28 Nordeste 48 Norte 0 -- -- 77
2019-10-06 15:00:00 21.9 28 Nordeste 43 Norte 0 -- -- 74
2019-10-06 14:00:00 22 26 Norte 42 Nordeste 0 -- -- 76
2019-10-06 13:00:00 22.1 26 Nordeste 40 Nordeste 0 -- -- 75
2019-10-06 12:00:00 22 26 Nordeste 40 Nordeste 0 -- -- 71
2019-10-06 11:00:00 20.5 22 Nordeste 33 Nordeste 0 -- -- 80
2019-10-06 10:00:00 19.9 19 Nordeste 44 Nordeste 0 -- -- 83
2019-10-06 09:00:00 19.3 24 Nordeste 40 Norte 0 -- -- 86
2019-10-06 08:00:00 19.2 24 Nordeste 39 Norte 0 -- -- 86
2019-10-06 07:00:00 19.1 23 Nordeste 42 Norte 0 -- -- 85
2019-10-06 06:00:00 19.3 27 Nordeste 47 Nordeste 0 -- -- 84
2019-10-06 05:00:00 19.5 26 Nordeste 45 Nordeste 0 -- -- 85
2019-10-06 04:00:00 19.5 28 Nordeste 47 Nordeste 0 -- -- 84
2019-10-06 03:00:00 19.7 27 Nordeste 45 Nordeste 0 -- -- 86
2019-10-06 02:00:00 19.8 30 Nordeste 50 Nordeste 0 -- -- 84
2019-10-06 01:00:00 19.8 31 Nordeste 56 Nordeste 0 -- -- 84
2019-10-06 00:00:00 19.8 30 Nordeste 53 Nordeste 0 -- -- 84
2019-10-05 23:00:00 20 32 Nordeste 50 Nordeste 0 -- -- 85
2019-10-05 22:00:00 19.9 28 Nordeste 53 Este 0 -- -- 86
2019-10-05 21:00:00 20.1 32 Nordeste 59 Norte 0 -- -- 84
2019-10-05 20:00:00 20.3 33 Nordeste 55 Nordeste 0 -- -- 85
2019-10-05 19:00:00 20.7 36 Nordeste 55 Nordeste 0 -- -- 85
2019-10-05 18:00:00 21.1 32 Nordeste 62 Nordeste 0 -- -- 83
2019-10-05 17:00:00 22 31 Nordeste 61 Nordeste 0 -- -- 78
2019-10-05 16:00:00 22.5 34 Nordeste 63 Norte 0 -- -- 74
2019-10-05 15:00:00 22.6 34 Nordeste 55 Nordeste 0 -- -- 74
2019-10-05 14:00:00 23.2 31 Norte 60 Nordeste 0 -- -- 73
2019-10-05 13:00:00 23.3 37 Nordeste 67 Nordeste 0 -- -- 72
2019-10-05 12:00:00 22.3 35 Nordeste 56 Nordeste 0 -- -- 75
2019-10-05 11:00:00 21.3 38 Nordeste 68 Nordeste 0 -- -- 80
2019-10-05 10:00:00 20.7 31 Nordeste 59 Nordeste 0 -- -- 85
2019-10-05 09:00:00 20.2 35 Nordeste 58 Nordeste 0 -- -- 87
2019-10-05 08:00:00 20 33 Nordeste 55 Nordeste 0 -- -- 87
2019-10-05 07:00:00 20 33 Nordeste 55 Nordeste 0 -- -- 88
2019-10-05 06:00:00 20 32 Nordeste 55 Nordeste 0 -- -- 91
2019-10-05 05:00:00 20 30 Nordeste 54 Nordeste 0 -- -- 91
2019-10-05 04:00:00 19.9 29 Nordeste 60 Norte 0 -- -- 91
2019-10-05 03:00:00 20 31 Nordeste 55 Nordeste 0 -- -- 90
2019-10-05 02:00:00 20 32 Nordeste 50 Norte 0 -- -- 91
2019-10-05 01:00:00 19.9 35 Nordeste 49 Nordeste 0 -- -- 89
2019-10-05 00:00:00 19.8 33 Nordeste 51 Nordeste 0 -- -- 89
2019-10-04 23:00:00 20 30 Nordeste 53 Norte 0 -- -- 88
2019-10-04 22:00:00 20.1 31 Nordeste 53 Norte 0 -- -- 89
2019-10-04 21:00:00 20.2 28 Nordeste 45 Norte 0 -- -- 87
2019-10-04 20:00:00 20.5 27 Norte 44 Nordeste 0 -- -- 87
2019-10-04 19:00:00 20.8 30 Norte 40 Norte 0 -- -- 84
2019-10-04 18:00:00 21.8 30 Norte 48 Nordeste 0 -- -- 79
2019-10-04 17:00:00 21.9 29 Norte 41 Norte 0 -- -- 79
2019-10-04 16:00:00 23.1 32 Norte 47 Norte 0 -- -- 73
2019-10-04 15:00:00 23.2 30 Nordeste 45 Nordeste 0 -- -- 72
2019-10-04 14:00:00 23.2 31 Nordeste 48 Nordeste 0 -- -- 72
2019-10-04 13:00:00 22.8 32 Norte 48 Norte 0 -- -- 74
2019-10-04 12:00:00 21.9 32 Norte 55 Nordeste 0 -- -- 79
2019-10-04 11:00:00 21.8 30 Nordeste 53 Nordeste 0 -- -- 78
2019-10-04 10:00:00 20.7 31 Nordeste 48 Nordeste 0 -- -- 83
2019-10-04 09:00:00 19.8 31 Nordeste 64 Nordeste 0 -- -- 86
2019-10-04 08:00:00 19.5 36 Nordeste 51 Nordeste 0 -- -- 88
2019-10-04 07:00:00 19.5 31 Nordeste 44 Nordeste 0 -- -- 90
2019-10-04 06:00:00 19.3 33 Nordeste 53 Norte 0 -- -- 92
2019-10-04 05:00:00 19.4 32 Norte 46 Norte 0 -- -- 93
2019-10-04 04:00:00 19.6 31 Norte 41 Norte 0 -- -- 93
2019-10-04 03:00:00 19.8 24 Norte 37 Norte 0 -- -- 93
2019-10-04 02:00:00 19.7 23 Norte 35 Norte 0 -- -- 92
2019-10-04 01:00:00 19.9 21 Norte 37 Norte 0 -- -- 92
2019-10-04 00:00:00 20 24 Norte 40 Nordeste 0 -- -- 92
2019-10-03 23:00:00 19.9 23 Nordeste 36 Nordeste 0 -- -- 91
2019-10-03 22:00:00 20.1 23 Norte 40 Norte 0 -- -- 90
2019-10-03 21:00:00 20.1 24 Norte 41 Nordeste 0 -- -- 89
2019-10-03 20:00:00 20.3 31 Norte 46 Nordeste 0 -- -- 88
2019-10-03 19:00:00 20.8 30 Norte 45 Norte 0 -- -- 85
2019-10-03 18:00:00 21.3 33 Norte 49 Norte 0 -- -- 83
2019-10-03 17:00:00 21.6 34 Norte 62 Norte 0 -- -- 82
2019-10-03 16:00:00 22.1 37 Norte 50 Norte 0 -- -- 79
2019-10-03 15:00:00 22.5 35 Norte 55 Nordeste 0 -- -- 77
2019-10-03 14:00:00 23.2 32 Norte 46 Nordeste 0 -- -- 77
2019-10-03 13:00:00 23.3 32 Nordeste 50 Nordeste 0 -- -- 75
2019-10-03 12:00:00 22.2 30 Nordeste 58 Norte 0 -- -- 80
2019-10-03 11:00:00 21.3 30 Nordeste 51 Norte 0 -- -- 86
2019-10-03 10:00:00 20.6 30 Norte 48 Nordeste 0 -- -- 88
2019-10-03 09:00:00 20 23 Nordeste 42 Nordeste 0 -- -- 93
2019-10-03 08:00:00 19.8 23 Nordeste 42 Norte 0 -- -- 94
2019-10-03 07:00:00 19.8 21 Nordeste 42 Nordeste 0 -- -- 94
2019-10-03 06:00:00 19.9 24 Nordeste 40 Nordeste 0 -- -- 93
2019-10-03 05:00:00 20 20 Nordeste 46 Norte 0 -- -- 93
2019-10-03 04:00:00 20.5 26 Nordeste 48 Norte 0 -- -- 84
2019-10-03 03:00:00 20.9 28 Nordeste 49 Norte 0 -- -- 80
2019-10-03 02:00:00 20.9 30 Nordeste 44 Nordeste 0 -- -- 85
2019-10-03 01:00:00 21 31 Nordeste 45 Norte 0 -- -- 84
2019-10-03 00:00:00 20.9 32 Nordeste 46 Nordeste 0 -- -- 86
2019-10-02 23:00:00 20.8 31 Nordeste 49 Nordeste 0 -- -- 87
2019-10-02 22:00:00 20.7 25 Norte 39 Norte 0 -- -- 88
2019-10-02 21:00:00 20.7 18 Norte 27 Nordeste 0 -- -- 90
2019-10-02 20:00:00 21.3 8 Norte 15 Norte 0 -- -- 87
2019-10-02 19:00:00 23 9 Norte 19 Norte 0 -- -- 80
2019-10-02 18:00:00 24.8 13 Norte 18 Norte 0 -- -- 66
2019-10-02 17:00:00 25.6 13 Norte 28 Norte 0 -- -- 62
2019-10-02 16:00:00 26.1 22 Norte 33 Norte 0 -- -- 62
2019-10-02 15:00:00 26.6 17 Norte 28 Norte 0 -- -- 58
2019-10-02 14:00:00 26.6 21 Norte 30 Norte 0 -- -- 57
2019-10-02 13:00:00 26 18 Norte 25 Norte 0 -- -- 59
2019-10-02 12:00:00 25.1 15 Norte 20 Nordeste 0 -- -- 64
2019-10-02 11:00:00 23.5 13 Nordeste 21 Nordeste 0 -- -- 71
2019-10-02 10:00:00 20.9 11 Norte 23 Este 0 -- -- 90
2019-10-02 09:00:00 19.6 14 Nordeste 23 Nordeste 0 -- -- 95
2019-10-02 08:00:00 19.1 14 Nordeste 28 Nordeste 0 -- -- 95
2019-10-02 07:00:00 19.1 16 Nordeste 32 Norte 0 -- -- 95
2019-10-02 06:00:00 19.2 5 Nordeste 28 Nordeste 0 -- -- 93
2019-10-02 05:00:00 19.4 14 Norte 24 Norte 0 -- -- 94
2019-10-02 04:00:00 19.6 9 Oeste 24 Norte 0 -- -- 92
2019-10-02 03:00:00 19.7 12 Sudoeste 21 Sudoeste 0 -- -- 91
2019-10-02 02:00:00 19.9 7 Sudoeste 18 Sudeste 0 -- -- 88
2019-10-02 01:00:00 20 6 Nordeste 17 Este 0 -- -- 89
2019-10-02 00:00:00 20.3 7 Noroeste 15 Noroeste 0 -- -- 86
2019-10-01 23:00:00 19.9 10 Sudoeste 22 Este 0 -- -- 88
2019-10-01 22:00:00 20.4 8 Sudeste 17 Nordeste 0 -- -- 90
2019-10-01 21:00:00 20.6 7 Nordeste 23 Norte 0 -- -- 88
2019-10-01 20:00:00 21 15 Nordeste 27 Norte 0 -- -- 89
2019-10-01 19:00:00 21.7 17 Nordeste 30 Norte 0 -- -- 86
2019-10-01 18:00:00 23.6 16 Norte 28 Norte 0 -- -- 77
2019-10-01 17:00:00 25 15 Norte 27 Norte 0 -- -- 70
2019-10-01 16:00:00 25.7 15 Nordeste 28 Norte 0 -- -- 67
2019-10-01 15:00:00 25.4 16 Norte 35 Norte 0 -- -- 67
2019-10-01 14:00:00 24.4 21 Norte 32 Norte 0 -- -- 75
2019-10-01 13:00:00 24.9 19 Nordeste 37 Nordeste 0 -- -- 71
2019-10-01 12:00:00 24.2 14 Nordeste 27 Norte 0 -- -- 73
2019-10-01 11:00:00 22.8 18 Nordeste 33 Nordeste 0 -- -- 81
2019-10-01 10:00:00 21.5 13 Nordeste 26 Nordeste 0 -- -- 88
2019-10-01 09:00:00 20 14 Nordeste 22 Nordeste 0 -- -- 95
2019-10-01 08:00:00 19.5 11 Nordeste 20 Nordeste 0 -- -- 96
2019-10-01 07:00:00 19.1 3 Este 15 Este 0 -- -- 97
2019-10-01 06:00:00 19.4 11 Este 21 Nordeste 0 -- -- 96
2019-10-01 05:00:00 19.6 10 Este 20 Este 0 -- -- 95
2019-10-01 04:00:00 19.9 9 Nordeste 23 Norte 0 -- -- 95
2019-10-01 03:00:00 20.1 8 Nordeste 22 Norte 0 -- -- 95
2019-10-01 02:00:00 20 9 Este 18 Este 0 -- -- 94
2019-10-01 01:00:00 20.2 12 Este 30 Este 0 -- -- 93
2019-10-01 00:00:00 21.1 13 Nordeste 32 Nordeste 0 -- -- 80
2019-09-30 23:00:00 20.4 15 Norte 29 Norte 0 -- -- 93
2019-09-30 22:00:00 20.6 5 Nordeste 22 Norte 0 -- -- 91
2019-09-30 21:00:00 20.8 4 Nordeste 28 Nordeste 0 -- -- 91
2019-09-30 20:00:00 21 13 Nordeste 27 Norte 0 -- -- 90
2019-09-30 19:00:00 21.7 21 Norte 32 Nordeste 0 -- -- 89
2019-09-30 18:00:00 22.3 21 Norte 32 Norte 0 -- -- 86
2019-09-30 17:00:00 23.4 21 Norte 31 Norte 0 -- -- 82
2019-09-30 16:00:00 25 20 Norte 30 Norte 0 -- -- 76
2019-09-30 15:00:00 26.3 14 Norte 23 Este 0 -- -- 69
2019-09-30 14:00:00 25.5 16 Norte 27 Norte 0 -- -- 72
2019-09-30 13:00:00 25.8 15 Norte 27 Este 0 -- -- 70
2019-09-30 12:00:00 24.6 15 Nordeste 26 Nordeste 0 -- -- 76
2019-09-30 11:00:00 23.7 14 Nordeste 22 Nordeste 0 -- -- 80
2019-09-30 10:00:00 21.7 12 Nordeste 20 Este 0 -- -- 89
2019-09-30 09:00:00 20.5 10 Norte 25 Nordeste 0 -- -- 95
2019-09-30 08:00:00 20.1 8 Nordeste 22 Norte 0 -- -- 95
2019-09-30 07:00:00 20.1 11 Norte 22 Norte 0 -- -- 95
2019-09-30 06:00:00 19.9 14 Nordeste 28 Norte 0 -- -- 95
2019-09-30 05:00:00 20 13 Nordeste 26 Norte 0 -- -- 95
2019-09-30 04:00:00 19.9 12 Nordeste 22 Nordeste 0 -- -- 94
2019-09-30 03:00:00 19.8 12 Nordeste 22 Nordeste 0 -- -- 94
2019-09-30 02:00:00 19.9 13 Nordeste 22 Nordeste 0 -- -- 93
2019-09-30 01:00:00 20.1 13 Nordeste 27 Norte 0 -- -- 94
2019-09-30 00:00:00 20.1 14 Nordeste 28 Norte 0 -- -- 93
2019-09-29 23:00:00 20.1 18 Nordeste 37 Nordeste 0 -- -- 93
2019-09-29 22:00:00 20.2 11 Nordeste 26 Nordeste 0 -- -- 88
2019-09-29 21:00:00 20.2 12 Nordeste 23 Nordeste 0 -- -- 91
2019-09-29 20:00:00 20.5 13 Nordeste 31 Nordeste 0 -- -- 89
2019-09-29 19:00:00 21.1 13 Nordeste 36 Nordeste 0 -- -- 85
2019-09-29 18:00:00 22.1 21 Norte 32 Norte 0 -- -- 82
2019-09-29 17:00:00 23 21 Norte 32 Norte 0 -- -- 77
2019-09-29 16:00:00 24 18 Nordeste 39 Nordeste 0 -- -- 73
2019-09-29 15:00:00 23.7 15 Norte 33 Nordeste 0 -- -- 73
2019-09-29 14:00:00 24.1 22 Norte 29 Nordeste 0 -- -- 71
2019-09-29 13:00:00 24.2 18 Nordeste 32 Nordeste 0 -- -- 68
2019-09-29 12:00:00 23.2 16 Nordeste 28 Nordeste 0 -- -- 72
2019-09-29 11:00:00 21.9 18 Nordeste 29 Nordeste 0 -- -- 77
2019-09-29 10:00:00 20.7 23 Nordeste 33 Nordeste 0 -- -- 83
2019-09-29 09:00:00 19.7 18 Nordeste 29 Norte 0 -- -- 89
2019-09-29 08:00:00 19.1 19 Nordeste 33 Nordeste 0 -- -- 90
2019-09-29 07:00:00 19.2 17 Nordeste 32 Nordeste 0 -- -- 90
2019-09-29 06:00:00 19.2 18 Nordeste 33 Nordeste 0 -- -- 90
2019-09-29 05:00:00 19.4 17 Nordeste 29 Norte 0 -- -- 90
2019-09-29 04:00:00 19.4 17 Nordeste 31 Nordeste 0 -- -- 89
2019-09-29 03:00:00 19.4 20 Nordeste 36 Norte 0 -- -- 89
2019-09-29 02:00:00 19.5 18 Nordeste 31 Nordeste 0 -- -- 89
2019-09-29 01:00:00 19.6 17 Nordeste 30 Nordeste 0 -- -- 89
2019-09-29 00:00:00 19.7 15 Nordeste 31 Norte 0 -- -- 88
2019-09-28 23:00:00 19.8 19 Nordeste 32 Norte 0 -- -- 87
2019-09-28 22:00:00 20.1 17 Norte 28 Norte 0 -- -- 86
2019-09-28 21:00:00 20.3 18 Norte 28 Nordeste 0 -- -- 85
2019-09-28 20:00:00 20.5 17 Norte 26 Norte 0 -- -- 84
2019-09-28 19:00:00 21.1 18 Norte 27 Norte 0 -- -- 81
2019-09-28 18:00:00 22.2 18 Norte 31 Norte 0 -- -- 75
2019-09-28 17:00:00 22.9 19 Norte 33 Nordeste 0 -- -- 70
2019-09-28 16:00:00 23.4 20 Norte 33 Nordeste 0 -- -- 69
2019-09-28 15:00:00 23.6 22 Norte 44 Nordeste 0 -- -- 67
2019-09-28 14:00:00 23.4 22 Norte 33 Norte 0 -- -- 67
2019-09-28 13:00:00 22.9 21 Norte 36 Nordeste 0 -- -- 69
2019-09-28 12:00:00 22.6 20 Nordeste 42 Nordeste 0 -- -- 70
2019-09-28 11:00:00 21.3 19 Nordeste 37 Nordeste 0 -- -- 75
2019-09-28 10:00:00 20 17 Nordeste 31 Nordeste 0 -- -- 82
2019-09-28 09:00:00 19.4 17 Nordeste 27 Nordeste 0 -- -- 85
2019-09-28 08:00:00 19 16 Nordeste 31 Norte 0 -- -- 88
2019-09-28 07:00:00 18.9 16 Nordeste 34 Nordeste 0 -- -- 88
2019-09-28 06:00:00 18.9 15 Nordeste 41 Nordeste 0 -- -- 88
2019-09-28 05:00:00 19.3 15 Nordeste 30 Nordeste 0 -- -- 89
2019-09-28 04:00:00 19 16 Nordeste 28 Norte 0 -- -- 88
2019-09-28 03:00:00 19.2 15 Nordeste 31 Norte 0 -- -- 89
2019-09-28 02:00:00 19.3 15 Nordeste 28 Norte 0 -- -- 90
2019-09-28 01:00:00 19.7 17 Nordeste 33 Nordeste 0 -- -- 88
2019-09-28 00:00:00 19.7 17 Nordeste 33 Norte 0 -- -- 87
2019-09-27 23:00:00 20 18 Nordeste 36 Nordeste 0 -- -- 87
2019-09-27 22:00:00 20 15 Norte 30 Nordeste 0 -- -- 87
2019-09-27 21:00:00 20.3 21 Norte 37 Nordeste 0 -- -- 84
2019-09-27 20:00:00 20.6 22 Norte 36 Nordeste 0 -- -- 84
2019-09-27 19:00:00 21.1 19 Norte 35 Nordeste 0 -- -- 83
2019-09-27 18:00:00 21.8 21 Norte 34 Nordeste 0 -- -- 78
2019-09-27 17:00:00 23 22 Norte 41 Norte 0 -- -- 70
2019-09-27 16:00:00 23.5 24 Norte 37 Norte 0 -- -- 68
2019-09-27 15:00:00 23.2 23 Nordeste 35 Norte 0 -- -- 70
2019-09-27 14:00:00 23.2 24 Norte 37 Nordeste 0 -- -- 70
2019-09-27 13:00:00 22.9 21 Norte 42 Nordeste 0 -- -- 73
2019-09-27 12:00:00 22.6 22 Nordeste 33 Nordeste 0 -- -- 72
2019-09-27 11:00:00 21.5 19 Nordeste 38 Nordeste 0 -- -- 79
2019-09-27 10:00:00 21.4 18 Nordeste 37 Este 0 -- -- 77
2019-09-27 09:00:00 20 18 Nordeste 32 Nordeste 0 -- -- 84
2019-09-27 08:00:00 19.5 20 Nordeste 33 Nordeste 0 -- -- 87
2019-09-27 07:00:00 19.7 14 Nordeste 32 Nordeste 0 -- -- 85
2019-09-27 06:00:00 19.8 19 Nordeste 33 Nordeste 0 -- -- 86
2019-09-27 05:00:00 19.8 21 Nordeste 32 Norte 0 -- -- 85
2019-09-27 04:00:00 19.9 16 Norte 34 Nordeste 0 -- -- 84
2019-09-27 03:00:00 19.9 19 Nordeste 35 Nordeste 0 -- -- 85
2019-09-27 02:00:00 20.1 21 Norte 32 Norte 0 -- -- 83
2019-09-27 01:00:00 20.1 18 Nordeste 30 Norte 0 -- -- 82
2019-09-27 00:00:00 20.3 16 Nordeste 33 Norte 0 -- -- 86
2019-09-26 23:00:00 20.4 18 Nordeste 35 Nordeste 0 -- -- 85
2019-09-26 22:00:00 20.4 19 Norte 32 Norte 0 -- -- 80
2019-09-26 21:00:00 20.6 19 Norte 36 Norte 0 -- -- 83
2019-09-26 20:00:00 20.6 17 Nordeste 34 Nordeste 0 -- -- 79
2019-09-26 19:00:00 21.2 22 Nordeste 32 Nordeste 0 -- -- 82
2019-09-26 18:00:00 21.9 19 Norte 31 Norte 0 -- -- 75
2019-09-26 17:00:00 22.1 22 Nordeste 37 Nordeste 0 -- -- 77
2019-09-26 16:00:00 22.8 21 Nordeste 38 Norte 0 -- -- 73
2019-09-26 15:00:00 23 26 Nordeste 44 Norte 0 -- -- 71
2019-09-26 14:00:00 23.3 25 Nordeste 38 Norte 0 -- -- 69
2019-09-26 13:00:00 22.7 24 Norte 42 Norte 0 -- -- 73
2019-09-26 12:00:00 21.9 25 Nordeste 41 Nordeste 0 -- -- 76
2019-09-26 11:00:00 21.1 25 Nordeste 37 Norte 0 -- -- 83
2019-09-26 10:00:00 20.8 20 Nordeste 44 Nordeste 0 -- -- 80
2019-09-26 09:00:00 20.4 19 Norte 33 Nordeste 0 -- -- 85
2019-09-26 08:00:00 20 22 Nordeste 44 Norte 0 -- -- 87
2019-09-26 07:00:00 20 19 Norte 32 Nordeste 0 -- -- 87
2019-09-26 06:00:00 20 21 Norte 42 Nordeste 0 -- -- 87
2019-09-26 05:00:00 20.1 21 Nordeste 37 Nordeste 0 -- -- 86
2019-09-26 04:00:00 20 16 Nordeste 36 Nordeste 0 -- -- 85
2019-09-26 03:00:00 19.9 20 Nordeste 33 Nordeste 0 -- -- 89
2019-09-26 02:00:00 19.8 19 Nordeste 43 Nordeste 0 -- -- 88
2019-09-26 01:00:00 20 18 Nordeste 44 Nordeste 0 -- -- 90
2019-09-26 00:00:00 20 25 Nordeste 41 Norte 0 -- -- 87
2019-09-25 23:00:00 20.2 23 Nordeste 41 Nordeste 0 -- -- 89
2019-09-25 22:00:00 20.3 26 Nordeste 42 Nordeste 0 -- -- 89
2019-09-25 21:00:00 20.5 24 Nordeste 45 Norte 0 -- -- 89
2019-09-25 20:00:00 20.8 23 Nordeste 51 Nordeste 0 -- -- 86
2019-09-25 19:00:00 21.4 30 Nordeste 47 Norte 0 -- -- 82
2019-09-25 18:00:00 22.1 28 Nordeste 46 Norte 0 -- -- 77
2019-09-25 17:00:00 22.7 30 Norte 47 Norte 0 -- -- 73
2019-09-25 16:00:00 23.3 30 Norte 46 Norte 0 -- -- 72
2019-09-25 15:00:00 23.5 27 Norte 45 Nordeste 0 -- -- 73
2019-09-25 14:00:00 23.7 32 Norte 44 Nordeste 0 -- -- 69
2019-09-25 13:00:00 23.6 30 Norte 53 Nordeste 0 -- -- 68
2019-09-25 12:00:00 22.9 31 Norte 45 Norte 0 -- -- 72
2019-09-25 11:00:00 21.7 28 Norte 47 Norte 0 -- -- 79
2019-09-25 10:00:00 20.8 27 Norte 37 Norte 0 -- -- 84
2019-09-25 09:00:00 20 21 Norte 36 Norte 0 -- -- 88
2019-09-25 08:00:00 19.4 18 Norte 31 Nordeste 0 -- -- 89
2019-09-25 07:00:00 19.3 18 Norte 37 Nordeste 0 -- -- 89
2019-09-25 06:00:00 19.3 18 Norte 33 Nordeste 0 -- -- 89
2019-09-25 05:00:00 19.3 21 Norte 31 Norte 0 -- -- 89
2019-09-25 04:00:00 19.1 19 Norte 29 Nordeste 0 -- -- 88
2019-09-25 03:00:00 19.1 17 Norte 33 Nordeste 0 -- -- 88
2019-09-25 02:00:00 19.2 20 Nordeste 30 Norte 0 -- -- 88
2019-09-25 01:00:00 19.1 16 Norte 38 Nordeste 0 -- -- 88
2019-09-25 00:00:00 19.3 24 Nordeste 38 Norte 0 -- -- 86
2019-09-24 23:00:00 19.6 23 Norte 37 Norte 0 -- -- 85
2019-09-24 22:00:00 19.8 23 Norte 40 Nordeste 0 -- -- 84
2019-09-24 21:00:00 20.1 23 Norte 42 Norte 0 -- -- 82
2019-09-24 20:00:00 20.2 27 Norte 41 Nordeste 0 -- -- 81
2019-09-24 19:00:00 20.7 28 Norte 42 Nordeste 0 -- -- 77
2019-09-24 18:00:00 21.3 30 Nordeste 42 Nordeste 0 -- -- 76
2019-09-24 17:00:00 21.6 29 Nordeste 48 Nordeste 0 -- -- 72
2019-09-24 16:00:00 22.4 30 Norte 48 Nordeste 0 -- -- 69
2019-09-24 15:00:00 22.8 26 Norte 44 Nordeste 0 -- -- 68
2019-09-24 14:00:00 23.1 27 Norte 42 Nordeste 0 -- -- 66
2019-09-24 13:00:00 22.3 26 Norte 41 Nordeste 0 -- -- 68
2019-09-24 12:00:00 21.9 26 Norte 49 Norte 0 -- -- 70
2019-09-24 11:00:00 21 26 Norte 41 Nordeste 0 -- -- 71
2019-09-24 10:00:00 20.3 24 Norte 39 Norte 0 -- -- 76
2019-09-24 09:00:00 19.8 22 Nordeste 46 Norte 0 -- -- 78
2019-09-24 08:00:00 19.3 24 Norte 39 Nordeste 0 -- -- 79
2019-09-24 07:00:00 19.2 20 Norte 34 Nordeste 0 -- -- 80
2019-09-24 06:00:00 19 17 Norte 39 Nordeste 0 -- -- 84
2019-09-24 05:00:00 19.3 21 Nordeste 36 Norte 0 -- -- 85
2019-09-24 04:00:00 19.4 21 Nordeste 34 Nordeste 0 -- -- 86
2019-09-24 03:00:00 19.2 21 Norte 39 Norte 0 -- -- 84
2019-09-24 02:00:00 19.3 22 Nordeste 33 Norte 0 -- -- 84
2019-09-24 01:00:00 19.5 22 Nordeste 36 Nordeste 0 -- -- 84
2019-09-24 00:00:00 19.7 20 Nordeste 35 Norte 0 -- -- 85
2019-09-23 23:00:00 19.9 23 Nordeste 38 Nordeste 0 -- -- 85
2019-09-23 22:00:00 19.9 24 Nordeste 41 Nordeste 0 -- -- 84
2019-09-23 21:00:00 20.1 25 Nordeste 45 Nordeste 0 -- -- 83
2019-09-23 20:00:00 20.6 24 Norte 41 Norte 0 -- -- 82
2019-09-23 19:00:00 21.2 27 Norte 41 Norte 0 -- -- 76
2019-09-23 18:00:00 21.9 27 Norte 45 Nordeste 0 -- -- 74
2019-09-23 17:00:00 22.1 28 Norte 43 Norte 0 -- -- 71
2019-09-23 16:00:00 22.8 27 Norte 46 Nordeste 0 -- -- 69
2019-09-23 15:00:00 23.4 28 Nordeste 48 Norte 0 -- -- 62
2019-09-23 14:00:00 23.2 27 Norte 46 Norte 0 -- -- 67
2019-09-23 13:00:00 22.7 28 Nordeste 47 Norte 0 -- -- 67
2019-09-23 12:00:00 21.9 24 Nordeste 41 Norte 0 -- -- 74
2019-09-23 11:00:00 22.1 23 Nordeste 37 Norte 0 -- -- 69
2019-09-23 10:00:00 20.8 22 Nordeste 37 Nordeste 0 -- -- 78
2019-09-23 09:00:00 19.8 23 Nordeste 36 Norte 0 -- -- 82
2019-09-23 08:00:00 19.3 18 Nordeste 34 Nordeste 0 -- -- 88
2019-09-23 07:00:00 19.3 21 Nordeste 33 Nordeste 0 -- -- 88
2019-09-23 06:00:00 19.2 15 Nordeste 32 Norte 0 -- -- 89
2019-09-23 05:00:00 19.1 17 Nordeste 28 Nordeste 0 -- -- 88
2019-09-23 04:00:00 19.5 16 Nordeste 28 Nordeste 0 -- -- 88
2019-09-23 03:00:00 19.6 19 Norte 41 Norte 0 -- -- 91
2019-09-23 02:00:00 19.8 17 Nordeste 31 Nordeste 0 -- -- 92
2019-09-23 01:00:00 20 15 Nordeste 29 Nordeste 0 -- -- 93
2019-09-23 00:00:00 20.1 17 Nordeste 26 Norte 0 -- -- 93
2019-09-22 23:00:00 19.9 17 Nordeste 35 Nordeste 0 -- -- 94
2019-09-22 22:00:00 20.2 20 Nordeste 36 Nordeste 0 -- -- 96
2019-09-22 21:00:00 20.2 20 Nordeste 36 Nordeste 0 -- -- 96
2019-09-22 20:00:00 20.7 24 Norte 42 Norte 0 -- -- 96
2019-09-22 19:00:00 21.3 22 Norte 33 Nordeste 0 -- -- 94
2019-09-22 18:00:00 21.8 20 Norte 31 Norte 0 -- -- 92
2019-09-22 17:00:00 23.3 15 Norte 30 Norte 0 -- -- 83
2019-09-22 16:00:00 24.8 15 Norte 26 Norte 0 -- -- 72
2019-09-22 15:00:00 24.2 15 Norte 26 Norte 0 -- -- 75
2019-09-22 14:00:00 24.1 15 Norte 28 Norte 0 -- -- 75
2019-09-22 13:00:00 23.8 15 Norte 25 Norte 0 -- -- 75
2019-09-22 12:00:00 23 12 Norte 26 Noroeste 0 -- -- 78
2019-09-22 11:00:00 22.9 13 Norte 19 Norte 0 -- -- 76
2019-09-22 10:00:00 21.2 11 Norte 18 Norte 0 -- -- 87
2019-09-22 09:00:00 20.3 4 Noroeste 11 Noroeste 0 -- -- 93
2019-09-22 08:00:00 20 8 Noroeste 19 Noroeste 0 -- -- 94
2019-09-22 07:00:00 20 6 Norte 16 Norte 0 -- -- 94
2019-09-22 06:00:00 20 9 Noroeste 14 Noroeste 0 -- -- 93
2019-09-22 05:00:00 20 5 Norte 17 Norte 0 -- -- 93
2019-09-22 04:00:00 20 5 Norte 13 Norte 0 -- -- 92
2019-09-22 03:00:00 20.2 9 Norte 14 Norte 0 -- -- 91
2019-09-22 02:00:00 20.3 5 Noroeste 10 Noroeste 0 -- -- 90
2019-09-22 01:00:00 20.3 5 Noroeste 17 Noroeste 0 -- -- 90
2019-09-22 00:00:00 20.3 5 Noroeste 16 Norte 0 -- -- 90